sensor_id;sensor_type;location;lat;lon;timestamp;P1;durP1;ratioP1;P2;durP2;ratioP2
31386;SDS011;69978;50.096;8.448;2023-06-14T00:01:17;3.10;;;1.33;;
31386;SDS011;69978;50.096;8.448;2023-06-14T00:03:45;4.88;;;1.20;;
31386;SDS011;69978;50.096;8.448;2023-06-14T00:06:12;4.32;;;1.15;;
31386;SDS011;69978;50.096;8.448;2023-06-14T00:08:38;3.80;;;1.45;;
31386;SDS011;69978;50.096;8.448;2023-06-14T00:11:04;7.03;;;1.23;;
31386;SDS011;69978;50.096;8.448;2023-06-14T00:13:30;4.63;;;1.52;;
31386;SDS011;69978;50.096;8.448;2023-06-14T00:15:56;4.55;;;1.20;;
31386;SDS011;69978;50.096;8.448;2023-06-14T00:18:21;6.78;;;1.60;;
31386;SDS011;69978;50.096;8.448;2023-06-14T00:23:20;5.07;;;1.13;;
31386;SDS011;69978;50.096;8.448;2023-06-14T00:25:46;3.55;;;1.40;;
31386;SDS011;69978;50.096;8.448;2023-06-14T00:28:12;4.07;;;1.40;;
31386;SDS011;69978;50.096;8.448;2023-06-14T00:30:37;3.80;;;1.27;;
31386;SDS011;69978;50.096;8.448;2023-06-14T00:33:03;3.75;;;1.30;;
31386;SDS011;69978;50.096;8.448;2023-06-14T00:35:29;3.55;;;1.30;;
31386;SDS011;69978;50.096;8.448;2023-06-14T00:37:54;5.70;;;1.20;;
31386;SDS011;69978;50.096;8.448;2023-06-14T00:40:20;3.25;;;1.15;;
31386;SDS011;69978;50.096;8.448;2023-06-14T00:42:46;4.18;;;1.52;;
31386;SDS011;69978;50.096;8.448;2023-06-14T00:45:12;8.13;;;1.40;;
31386;SDS011;69978;50.096;8.448;2023-06-14T00:47:38;3.50;;;1.20;;
31386;SDS011;69978;50.096;8.448;2023-06-14T00:50:06;2.90;;;1.10;;
31386;SDS011;69978;50.096;8.448;2023-06-14T00:52:32;2.67;;;1.30;;
31386;SDS011;69978;50.096;8.448;2023-06-14T00:54:58;3.55;;;1.48;;
31386;SDS011;69978;50.096;8.448;2023-06-14T00:57:23;1.60;;;1.05;;
31386;SDS011;69978;50.096;8.448;2023-06-14T00:59:49;2.67;;;1.17;;
31386;SDS011;69978;50.096;8.448;2023-06-14T01:02:15;3.53;;;1.10;;
31386;SDS011;69978;50.096;8.448;2023-06-14T01:04:42;4.78;;;1.10;;
31386;SDS011;69978;50.096;8.448;2023-06-14T01:10:00;3.47;;;0.95;;
31386;SDS011;69978;50.096;8.448;2023-06-14T01:15:33;7.28;;;1.30;;
31386;SDS011;69978;50.096;8.448;2023-06-14T01:18:00;2.65;;;0.95;;
31386;SDS011;69978;50.096;8.448;2023-06-14T01:20:29;3.40;;;1.17;;
31386;SDS011;69978;50.096;8.448;2023-06-14T01:22:57;4.70;;;1.00;;
31386;SDS011;69978;50.096;8.448;2023-06-14T01:25:23;4.28;;;1.20;;
31386;SDS011;69978;50.096;8.448;2023-06-14T01:27:50;2.00;;;1.20;;
31386;SDS011;69978;50.096;8.448;2023-06-14T01:30:27;6.63;;;1.20;;
31386;SDS011;69978;50.096;8.448;2023-06-14T01:32:54;6.22;;;1.27;;
31386;SDS011;69978;50.096;8.448;2023-06-14T01:35:21;9.65;;;1.50;;
31386;SDS011;69978;50.096;8.448;2023-06-14T01:37:48;2.65;;;1.20;;
31386;SDS011;69978;50.096;8.448;2023-06-14T01:40:15;3.95;;;1.23;;
31386;SDS011;69978;50.096;8.448;2023-06-14T01:42:45;7.15;;;1.52;;
31386;SDS011;69978;50.096;8.448;2023-06-14T01:45:11;4.53;;;1.13;;
31386;SDS011;69978;50.096;8.448;2023-06-14T01:47:37;3.42;;;1.08;;
31386;SDS011;69978;50.096;8.448;2023-06-14T01:50:03;2.90;;;1.23;;
31386;SDS011;69978;50.096;8.448;2023-06-14T01:52:29;6.75;;;1.23;;
31386;SDS011;69978;50.096;8.448;2023-06-14T01:54:55;5.53;;;1.30;;
31386;SDS011;69978;50.096;8.448;2023-06-14T01:57:21;3.75;;;1.30;;
31386;SDS011;69978;50.096;8.448;2023-06-14T01:59:47;3.90;;;0.88;;
31386;SDS011;69978;50.096;8.448;2023-06-14T02:02:13;4.68;;;1.25;;
31386;SDS011;69978;50.096;8.448;2023-06-14T02:04:40;3.60;;;1.17;;
31386;SDS011;69978;50.096;8.448;2023-06-14T02:07:08;4.22;;;1.00;;
31386;SDS011;69978;50.096;8.448;2023-06-14T02:09:34;3.10;;;1.30;;
31386;SDS011;69978;50.096;8.448;2023-06-14T02:12:00;1.83;;;0.93;;
31386;SDS011;69978;50.096;8.448;2023-06-14T02:14:26;2.05;;;0.90;;
31386;SDS011;69978;50.096;8.448;2023-06-14T02:16:52;4.95;;;1.23;;
31386;SDS011;69978;50.096;8.448;2023-06-14T02:19:18;3.30;;;1.25;;
31386;SDS011;69978;50.096;8.448;2023-06-14T02:21:45;2.58;;;1.00;;
31386;SDS011;69978;50.096;8.448;2023-06-14T02:24:11;3.35;;;1.20;;
31386;SDS011;69978;50.096;8.448;2023-06-14T02:26:37;3.42;;;0.90;;
31386;SDS011;69978;50.096;8.448;2023-06-14T02:29:08;6.85;;;1.10;;
31386;SDS011;69978;50.096;8.448;2023-06-14T02:31:37;5.50;;;1.20;;
31386;SDS011;69978;50.096;8.448;2023-06-14T02:34:03;3.65;;;0.95;;
31386;SDS011;69978;50.096;8.448;2023-06-14T02:36:29;5.60;;;1.20;;
31386;SDS011;69978;50.096;8.448;2023-06-14T02:38:55;2.58;;;1.10;;
31386;SDS011;69978;50.096;8.448;2023-06-14T02:41:22;3.33;;;1.20;;
31386;SDS011;69978;50.096;8.448;2023-06-14T02:43:49;3.28;;;1.02;;
31386;SDS011;69978;50.096;8.448;2023-06-14T02:46:14;5.43;;;0.85;;
31386;SDS011;69978;50.096;8.448;2023-06-14T02:48:40;3.65;;;1.15;;
31386;SDS011;69978;50.096;8.448;2023-06-14T02:51:06;3.60;;;1.15;;
31386;SDS011;69978;50.096;8.448;2023-06-14T02:53:33;2.80;;;1.08;;
31386;SDS011;69978;50.096;8.448;2023-06-14T02:55:59;8.70;;;1.35;;
31386;SDS011;69978;50.096;8.448;2023-06-14T02:58:25;1.92;;;1.10;;
31386;SDS011;69978;50.096;8.448;2023-06-14T03:00:51;5.53;;;1.10;;
31386;SDS011;69978;50.096;8.448;2023-06-14T03:03:18;4.70;;;1.05;;
31386;SDS011;69978;50.096;8.448;2023-06-14T03:05:45;2.95;;;1.20;;
31386;SDS011;69978;50.096;8.448;2023-06-14T03:08:14;4.90;;;1.08;;
31386;SDS011;69978;50.096;8.448;2023-06-14T03:10:42;1.45;;;0.88;;
31386;SDS011;69978;50.096;8.448;2023-06-14T03:13:08;5.97;;;1.17;;
31386;SDS011;69978;50.096;8.448;2023-06-14T03:15:34;2.55;;;1.00;;
31386;SDS011;69978;50.096;8.448;2023-06-14T03:18:03;3.08;;;1.30;;
31386;SDS011;69978;50.096;8.448;2023-06-14T03:20:29;7.53;;;1.55;;
31386;SDS011;69978;50.096;8.448;2023-06-14T03:22:58;4.97;;;1.30;;
31386;SDS011;69978;50.096;8.448;2023-06-14T03:25:24;6.07;;;1.00;;
31386;SDS011;69978;50.096;8.448;2023-06-14T03:27:50;5.28;;;1.20;;
31386;SDS011;69978;50.096;8.448;2023-06-14T03:30:16;2.88;;;1.15;;
31386;SDS011;69978;50.096;8.448;2023-06-14T03:32:42;5.75;;;1.50;;
31386;SDS011;69978;50.096;8.448;2023-06-14T03:35:07;4.25;;;1.10;;
31386;SDS011;69978;50.096;8.448;2023-06-14T03:37:33;2.67;;;1.17;;
31386;SDS011;69978;50.096;8.448;2023-06-14T03:39:59;5.88;;;1.20;;
31386;SDS011;69978;50.096;8.448;2023-06-14T03:42:25;4.57;;;1.40;;
31386;SDS011;69978;50.096;8.448;2023-06-14T03:44:51;5.75;;;1.00;;
31386;SDS011;69978;50.096;8.448;2023-06-14T03:47:17;5.15;;;1.50;;
31386;SDS011;69978;50.096;8.448;2023-06-14T03:49:45;5.00;;;1.95;;
31386;SDS011;69978;50.096;8.448;2023-06-14T03:52:11;2.45;;;1.15;;
31386;SDS011;69978;50.096;8.448;2023-06-14T03:54:36;2.55;;;1.30;;
31386;SDS011;69978;50.096;8.448;2023-06-14T03:57:02;7.80;;;1.42;;
31386;SDS011;69978;50.096;8.448;2023-06-14T03:59:27;7.35;;;1.23;;
31386;SDS011;69978;50.096;8.448;2023-06-14T04:02:13;5.88;;;1.40;;
31386;SDS011;69978;50.096;8.448;2023-06-14T04:04:41;7.30;;;1.10;;
31386;SDS011;69978;50.096;8.448;2023-06-14T04:07:11;9.50;;;1.35;;
31386;SDS011;69978;50.096;8.448;2023-06-14T04:09:40;4.28;;;1.45;;
31386;SDS011;69978;50.096;8.448;2023-06-14T04:12:06;4.25;;;0.80;;
31386;SDS011;69978;50.096;8.448;2023-06-14T04:14:33;3.80;;;0.82;;
31386;SDS011;69978;50.096;8.448;2023-06-14T04:16:59;2.45;;;1.10;;
31386;SDS011;69978;50.096;8.448;2023-06-14T04:19:25;3.88;;;1.25;;
31386;SDS011;69978;50.096;8.448;2023-06-14T04:21:51;2.35;;;1.20;;
31386;SDS011;69978;50.096;8.448;2023-06-14T04:24:17;4.18;;;1.02;;
31386;SDS011;69978;50.096;8.448;2023-06-14T04:26:43;5.43;;;1.20;;
31386;SDS011;69978;50.096;8.448;2023-06-14T04:29:16;7.13;;;1.50;;
31386;SDS011;69978;50.096;8.448;2023-06-14T04:31:44;3.08;;;0.98;;
31386;SDS011;69978;50.096;8.448;2023-06-14T04:34:11;6.22;;;1.00;;
31386;SDS011;69978;50.096;8.448;2023-06-14T04:36:43;4.13;;;1.30;;
31386;SDS011;69978;50.096;8.448;2023-06-14T04:39:17;5.28;;;1.23;;
31386;SDS011;69978;50.096;8.448;2023-06-14T04:41:43;3.47;;;1.08;;
31386;SDS011;69978;50.096;8.448;2023-06-14T04:44:09;3.05;;;1.05;;
31386;SDS011;69978;50.096;8.448;2023-06-14T04:46:35;9.93;;;1.52;;
31386;SDS011;69978;50.096;8.448;2023-06-14T04:49:17;7.10;;;1.20;;
31386;SDS011;69978;50.096;8.448;2023-06-14T04:51:43;2.38;;;1.05;;
31386;SDS011;69978;50.096;8.448;2023-06-14T04:54:10;2.10;;;1.00;;
31386;SDS011;69978;50.096;8.448;2023-06-14T04:56:38;3.78;;;1.08;;
31386;SDS011;69978;50.096;8.448;2023-06-14T04:59:04;7.40;;;1.40;;
31386;SDS011;69978;50.096;8.448;2023-06-14T05:01:30;6.72;;;1.30;;
31386;SDS011;69978;50.096;8.448;2023-06-14T05:03:59;4.60;;;1.10;;
31386;SDS011;69978;50.096;8.448;2023-06-14T05:06:25;5.53;;;1.10;;
31386;SDS011;69978;50.096;8.448;2023-06-14T05:08:53;4.53;;;1.10;;
31386;SDS011;69978;50.096;8.448;2023-06-14T05:11:19;1.63;;;1.10;;
31386;SDS011;69978;50.096;8.448;2023-06-14T05:13:45;4.47;;;1.60;;
31386;SDS011;69978;50.096;8.448;2023-06-14T05:16:11;4.05;;;1.00;;
31386;SDS011;69978;50.096;8.448;2023-06-14T05:18:37;3.45;;;0.90;;
31386;SDS011;69978;50.096;8.448;2023-06-14T05:21:05;2.70;;;0.98;;
31386;SDS011;69978;50.096;8.448;2023-06-14T05:23:30;3.15;;;1.23;;
31386;SDS011;69978;50.096;8.448;2023-06-14T05:25:56;1.63;;;0.73;;
31386;SDS011;69978;50.096;8.448;2023-06-14T05:28:22;4.40;;;1.08;;
31386;SDS011;69978;50.096;8.448;2023-06-14T05:30:48;5.15;;;1.02;;
31386;SDS011;69978;50.096;8.448;2023-06-14T05:33:13;4.32;;;0.85;;
31386;SDS011;69978;50.096;8.448;2023-06-14T05:35:39;5.28;;;0.80;;
31386;SDS011;69978;50.096;8.448;2023-06-14T05:38:04;1.98;;;0.93;;
31386;SDS011;69978;50.096;8.448;2023-06-14T05:40:33;3.10;;;0.88;;
31386;SDS011;69978;50.096;8.448;2023-06-14T05:42:59;2.35;;;0.88;;
31386;SDS011;69978;50.096;8.448;2023-06-14T05:45:24;6.80;;;0.93;;
31386;SDS011;69978;50.096;8.448;2023-06-14T05:47:50;5.53;;;1.50;;
31386;SDS011;69978;50.096;8.448;2023-06-14T05:50:16;4.93;;;1.05;;
31386;SDS011;69978;50.096;8.448;2023-06-14T05:52:41;5.47;;;1.00;;
31386;SDS011;69978;50.096;8.448;2023-06-14T05:55:07;6.97;;;1.27;;
31386;SDS011;69978;50.096;8.448;2023-06-14T05:57:33;4.43;;;1.27;;
31386;SDS011;69978;50.096;8.448;2023-06-14T05:59:59;5.05;;;1.10;;
31386;SDS011;69978;50.096;8.448;2023-06-14T06:02:24;5.18;;;1.30;;
31386;SDS011;69978;50.096;8.448;2023-06-14T06:04:50;3.50;;;1.25;;
31386;SDS011;69978;50.096;8.448;2023-06-14T06:07:16;4.72;;;0.95;;
31386;SDS011;69978;50.096;8.448;2023-06-14T06:09:41;5.03;;;1.20;;
31386;SDS011;69978;50.096;8.448;2023-06-14T06:12:07;2.83;;;0.98;;
31386;SDS011;69978;50.096;8.448;2023-06-14T06:14:33;4.63;;;1.20;;
31386;SDS011;69978;50.096;8.448;2023-06-14T06:16:58;4.80;;;1.00;;
31386;SDS011;69978;50.096;8.448;2023-06-14T06:19:24;6.03;;;0.88;;
31386;SDS011;69978;50.096;8.448;2023-06-14T06:21:49;8.25;;;1.13;;
31386;SDS011;69978;50.096;8.448;2023-06-14T06:24:15;2.33;;;1.08;;
31386;SDS011;69978;50.096;8.448;2023-06-14T06:26:41;8.85;;;0.98;;
31386;SDS011;69978;50.096;8.448;2023-06-14T06:29:07;5.40;;;0.80;;
31386;SDS011;69978;50.096;8.448;2023-06-14T06:31:32;3.03;;;1.15;;
31386;SDS011;69978;50.096;8.448;2023-06-14T06:33:58;6.93;;;0.95;;
31386;SDS011;69978;50.096;8.448;2023-06-14T06:36:23;7.57;;;0.98;;
31386;SDS011;69978;50.096;8.448;2023-06-14T06:38:49;4.68;;;1.10;;
31386;SDS011;69978;50.096;8.448;2023-06-14T06:41:15;5.20;;;0.93;;
31386;SDS011;69978;50.096;8.448;2023-06-14T06:43:40;4.72;;;1.13;;
31386;SDS011;69978;50.096;8.448;2023-06-14T06:46:06;6.55;;;1.15;;
31386;SDS011;69978;50.096;8.448;2023-06-14T06:48:32;3.97;;;0.85;;
31386;SDS011;69978;50.096;8.448;2023-06-14T06:50:57;3.40;;;0.90;;
31386;SDS011;69978;50.096;8.448;2023-06-14T06:53:23;3.90;;;0.93;;
31386;SDS011;69978;50.096;8.448;2023-06-14T06:55:48;7.00;;;0.95;;
31386;SDS011;69978;50.096;8.448;2023-06-14T06:58:14;3.33;;;0.93;;
31386;SDS011;69978;50.096;8.448;2023-06-14T07:00:40;1.38;;;0.90;;
31386;SDS011;69978;50.096;8.448;2023-06-14T07:03:06;2.72;;;0.88;;
31386;SDS011;69978;50.096;8.448;2023-06-14T07:05:31;3.05;;;0.80;;
31386;SDS011;69978;50.096;8.448;2023-06-14T07:07:57;3.17;;;0.85;;
31386;SDS011;69978;50.096;8.448;2023-06-14T07:10:23;2.58;;;0.90;;
31386;SDS011;69978;50.096;8.448;2023-06-14T07:12:49;2.67;;;0.90;;
31386;SDS011;69978;50.096;8.448;2023-06-14T07:15:15;2.53;;;0.88;;
31386;SDS011;69978;50.096;8.448;2023-06-14T07:17:41;3.90;;;0.90;;
31386;SDS011;69978;50.096;8.448;2023-06-14T07:20:07;1.45;;;0.77;;
31386;SDS011;69978;50.096;8.448;2023-06-14T07:22:38;9.77;;;1.05;;
31386;SDS011;69978;50.096;8.448;2023-06-14T07:25:06;4.47;;;0.90;;
31386;SDS011;69978;50.096;8.448;2023-06-14T07:27:33;4.78;;;0.70;;
31386;SDS011;69978;50.096;8.448;2023-06-14T07:29:59;1.42;;;0.70;;
31386;SDS011;69978;50.096;8.448;2023-06-14T07:32:24;2.90;;;0.90;;
31386;SDS011;69978;50.096;8.448;2023-06-14T07:34:50;3.40;;;0.88;;
31386;SDS011;69978;50.096;8.448;2023-06-14T07:37:15;1.85;;;0.65;;
31386;SDS011;69978;50.096;8.448;2023-06-14T07:39:41;5.00;;;0.70;;
31386;SDS011;69978;50.096;8.448;2023-06-14T07:42:06;2.35;;;0.70;;
31386;SDS011;69978;50.096;8.448;2023-06-14T07:44:32;4.28;;;0.70;;
31386;SDS011;69978;50.096;8.448;2023-06-14T07:46:57;3.17;;;0.80;;
31386;SDS011;69978;50.096;8.448;2023-06-14T07:49:24;3.78;;;0.60;;
31386;SDS011;69978;50.096;8.448;2023-06-14T07:51:50;2.92;;;0.80;;
31386;SDS011;69978;50.096;8.448;2023-06-14T07:54:16;3.67;;;0.77;;
31386;SDS011;69978;50.096;8.448;2023-06-14T07:56:42;2.05;;;0.82;;
31386;SDS011;69978;50.096;8.448;2023-06-14T07:59:08;1.88;;;0.63;;
31386;SDS011;69978;50.096;8.448;2023-06-14T08:01:33;4.68;;;0.80;;
31386;SDS011;69978;50.096;8.448;2023-06-14T08:03:59;4.90;;;0.60;;
31386;SDS011;69978;50.096;8.448;2023-06-14T08:06:26;1.45;;;0.60;;
31386;SDS011;69978;50.096;8.448;2023-06-14T08:08:52;1.85;;;0.90;;
31386;SDS011;69978;50.096;8.448;2023-06-14T08:11:17;5.07;;;0.60;;
31386;SDS011;69978;50.096;8.448;2023-06-14T08:13:43;3.53;;;0.60;;
31386;SDS011;69978;50.096;8.448;2023-06-14T08:16:09;4.93;;;0.70;;
31386;SDS011;69978;50.096;8.448;2023-06-14T08:18:35;2.45;;;0.47;;
31386;SDS011;69978;50.096;8.448;2023-06-14T08:21:01;5.80;;;0.60;;
31386;SDS011;69978;50.096;8.448;2023-06-14T08:23:27;1.98;;;0.50;;
31386;SDS011;69978;50.096;8.448;2023-06-14T08:25:53;2.10;;;0.40;;
31386;SDS011;69978;50.096;8.448;2023-06-14T08:28:19;4.38;;;0.68;;
31386;SDS011;69978;50.096;8.448;2023-06-14T08:30:45;3.05;;;0.75;;
31386;SDS011;69978;50.096;8.448;2023-06-14T08:33:10;3.38;;;0.68;;
31386;SDS011;69978;50.096;8.448;2023-06-14T08:35:36;1.30;;;0.57;;
31386;SDS011;69978;50.096;8.448;2023-06-14T08:38:03;2.30;;;0.50;;
31386;SDS011;69978;50.096;8.448;2023-06-14T08:40:29;2.67;;;0.50;;
31386;SDS011;69978;50.096;8.448;2023-06-14T08:42:55;0.80;;;0.50;;
31386;SDS011;69978;50.096;8.448;2023-06-14T08:45:21;1.02;;;0.35;;
31386;SDS011;69978;50.096;8.448;2023-06-14T08:47:48;4.38;;;0.43;;
31386;SDS011;69978;50.096;8.448;2023-06-14T08:50:22;1.73;;;0.50;;
31386;SDS011;69978;50.096;8.448;2023-06-14T08:52:54;1.50;;;0.60;;
31386;SDS011;69978;50.096;8.448;2023-06-14T08:55:22;2.83;;;0.45;;
31386;SDS011;69978;50.096;8.448;2023-06-14T08:57:55;3.35;;;0.52;;
31386;SDS011;69978;50.096;8.448;2023-06-14T09:00:25;3.33;;;0.30;;
31386;SDS011;69978;50.096;8.448;2023-06-14T09:02:53;1.98;;;0.40;;
31386;SDS011;69978;50.096;8.448;2023-06-14T09:05:26;0.95;;;0.20;;
31386;SDS011;69978;50.096;8.448;2023-06-14T09:07:54;1.17;;;0.40;;
31386;SDS011;69978;50.096;8.448;2023-06-14T09:10:20;1.40;;;0.38;;
31386;SDS011;69978;50.096;8.448;2023-06-14T09:12:46;1.00;;;0.40;;
31386;SDS011;69978;50.096;8.448;2023-06-14T09:15:12;2.00;;;0.32;;
31386;SDS011;69978;50.096;8.448;2023-06-14T09:17:39;4.60;;;0.40;;
31386;SDS011;69978;50.096;8.448;2023-06-14T09:20:05;1.52;;;0.32;;
31386;SDS011;69978;50.096;8.448;2023-06-14T09:22:36;0.85;;;0.40;;
31386;SDS011;69978;50.096;8.448;2023-06-14T09:25:03;2.40;;;0.20;;
31386;SDS011;69978;50.096;8.448;2023-06-14T09:27:30;1.20;;;0.38;;
31386;SDS011;69978;50.096;8.448;2023-06-14T09:29:56;2.78;;;0.35;;
31386;SDS011;69978;50.096;8.448;2023-06-14T09:32:22;1.17;;;0.30;;
31386;SDS011;69978;50.096;8.448;2023-06-14T09:34:48;0.50;;;0.30;;
31386;SDS011;69978;50.096;8.448;2023-06-14T09:37:26;0.40;;;0.22;;
31386;SDS011;69978;50.096;8.448;2023-06-14T09:39:55;0.88;;;0.40;;
31386;SDS011;69978;50.096;8.448;2023-06-14T09:42:21;1.63;;;0.38;;
31386;SDS011;69978;50.096;8.448;2023-06-14T09:44:50;2.85;;;0.25;;
31386;SDS011;69978;50.096;8.448;2023-06-14T09:47:17;1.17;;;0.32;;
31386;SDS011;69978;50.096;8.448;2023-06-14T09:49:43;0.70;;;0.20;;
31386;SDS011;69978;50.096;8.448;2023-06-14T09:52:10;1.15;;;0.40;;
31386;SDS011;69978;50.096;8.448;2023-06-14T09:54:42;2.38;;;0.20;;
31386;SDS011;69978;50.096;8.448;2023-06-14T09:59:37;0.73;;;0.30;;
31386;SDS011;69978;50.096;8.448;2023-06-14T10:02:31;0.20;;;0.20;;
31386;SDS011;69978;50.096;8.448;2023-06-14T10:05:09;1.23;;;0.30;;
31386;SDS011;69978;50.096;8.448;2023-06-14T10:10:13;3.38;;;0.20;;
31386;SDS011;69978;50.096;8.448;2023-06-14T10:12:39;1.95;;;0.30;;
31386;SDS011;69978;50.096;8.448;2023-06-14T10:15:05;2.50;;;0.30;;
31386;SDS011;69978;50.096;8.448;2023-06-14T10:17:39;2.67;;;0.40;;
31386;SDS011;69978;50.096;8.448;2023-06-14T10:20:33;1.65;;;0.25;;
31386;SDS011;69978;50.096;8.448;2023-06-14T10:23:18;0.30;;;0.30;;
31386;SDS011;69978;50.096;8.448;2023-06-14T10:25:49;0.95;;;0.30;;
31386;SDS011;69978;50.096;8.448;2023-06-14T10:33:52;1.35;;;0.30;;
31386;SDS011;69978;50.096;8.448;2023-06-14T10:38:56;1.73;;;0.20;;
31386;SDS011;69978;50.096;8.448;2023-06-14T10:41:22;2.80;;;0.30;;
31386;SDS011;69978;50.096;8.448;2023-06-14T10:43:48;1.48;;;0.30;;
31386;SDS011;69978;50.096;8.448;2023-06-14T10:46:19;2.55;;;0.38;;
31386;SDS011;69978;50.096;8.448;2023-06-14T10:48:48;3.28;;;0.30;;
31386;SDS011;69978;50.096;8.448;2023-06-14T10:51:20;2.33;;;0.30;;
31386;SDS011;69978;50.096;8.448;2023-06-14T10:56:34;2.65;;;0.30;;
31386;SDS011;69978;50.096;8.448;2023-06-14T10:58:59;1.52;;;0.30;;
31386;SDS011;69978;50.096;8.448;2023-06-14T11:01:38;0.75;;;0.40;;
31386;SDS011;69978;50.096;8.448;2023-06-14T11:13:01;2.38;;;0.38;;
31386;SDS011;69978;50.096;8.448;2023-06-14T11:15:31;1.42;;;0.40;;
31386;SDS011;69978;50.096;8.448;2023-06-14T11:18:01;1.42;;;0.30;;
31386;SDS011;69978;50.096;8.448;2023-06-14T11:20:31;3.47;;;0.60;;
31386;SDS011;69978;50.096;8.448;2023-06-14T11:22:57;1.05;;;0.30;;
31386;SDS011;69978;50.096;8.448;2023-06-14T11:25:24;1.63;;;0.30;;
31386;SDS011;69978;50.096;8.448;2023-06-14T11:27:50;0.60;;;0.20;;
31386;SDS011;69978;50.096;8.448;2023-06-14T11:30:15;2.92;;;0.30;;
31386;SDS011;69978;50.096;8.448;2023-06-14T11:32:41;0.40;;;0.30;;
31386;SDS011;69978;50.096;8.448;2023-06-14T11:35:07;5.15;;;0.30;;
31386;SDS011;69978;50.096;8.448;2023-06-14T11:37:35;0.38;;;0.30;;
31386;SDS011;69978;50.096;8.448;2023-06-14T11:40:02;0.57;;;0.30;;
31386;SDS011;69978;50.096;8.448;2023-06-14T11:42:33;1.48;;;0.40;;
31386;SDS011;69978;50.096;8.448;2023-06-14T11:44:58;0.57;;;0.40;;
31386;SDS011;69978;50.096;8.448;2023-06-14T11:47:24;2.20;;;0.30;;
31386;SDS011;69978;50.096;8.448;2023-06-14T11:49:55;1.17;;;0.20;;
31386;SDS011;69978;50.096;8.448;2023-06-14T11:52:23;1.45;;;0.20;;
31386;SDS011;69978;50.096;8.448;2023-06-14T11:54:48;1.40;;;0.30;;
31386;SDS011;69978;50.096;8.448;2023-06-14T11:57:14;1.58;;;0.40;;
31386;SDS011;69978;50.096;8.448;2023-06-14T11:59:43;2.72;;;0.35;;
31386;SDS011;69978;50.096;8.448;2023-06-14T12:02:09;1.73;;;0.28;;
31386;SDS011;69978;50.096;8.448;2023-06-14T12:04:40;0.60;;;0.20;;
31386;SDS011;69978;50.096;8.448;2023-06-14T12:07:13;3.35;;;0.45;;
31386;SDS011;69978;50.096;8.448;2023-06-14T12:09:41;1.08;;;0.32;;
31386;SDS011;69978;50.096;8.448;2023-06-14T12:12:09;0.73;;;0.38;;
31386;SDS011;69978;50.096;8.448;2023-06-14T12:14:35;0.50;;;0.20;;
31386;SDS011;69978;50.096;8.448;2023-06-14T12:17:05;2.03;;;0.32;;
31386;SDS011;69978;50.096;8.448;2023-06-14T12:19:31;0.88;;;0.30;;
31386;SDS011;69978;50.096;8.448;2023-06-14T12:21:59;3.13;;;0.30;;
31386;SDS011;69978;50.096;8.448;2023-06-14T12:24:29;1.70;;;0.30;;
31386;SDS011;69978;50.096;8.448;2023-06-14T12:26:56;1.23;;;0.30;;
31386;SDS011;69978;50.096;8.448;2023-06-14T12:29:24;1.65;;;0.20;;
31386;SDS011;69978;50.096;8.448;2023-06-14T12:31:50;2.88;;;0.30;;
31386;SDS011;69978;50.096;8.448;2023-06-14T12:34:16;1.80;;;0.28;;
31386;SDS011;69978;50.096;8.448;2023-06-14T12:36:42;1.48;;;0.30;;
31386;SDS011;69978;50.096;8.448;2023-06-14T12:39:09;0.30;;;0.28;;
31386;SDS011;69978;50.096;8.448;2023-06-14T12:41:35;0.82;;;0.22;;
31386;SDS011;69978;50.096;8.448;2023-06-14T12:44:06;4.55;;;0.30;;
31386;SDS011;69978;50.096;8.448;2023-06-14T12:46:32;1.05;;;0.30;;
31386;SDS011;69978;50.096;8.448;2023-06-14T12:48:59;1.13;;;0.30;;
31386;SDS011;69978;50.096;8.448;2023-06-14T12:51:25;1.02;;;0.30;;
31386;SDS011;69978;50.096;8.448;2023-06-14T12:53:51;1.75;;;0.40;;
31386;SDS011;69978;50.096;8.448;2023-06-14T12:56:17;3.20;;;0.40;;
31386;SDS011;69978;50.096;8.448;2023-06-14T12:58:43;0.40;;;0.30;;
31386;SDS011;69978;50.096;8.448;2023-06-14T13:01:08;2.08;;;0.40;;
31386;SDS011;69978;50.096;8.448;2023-06-14T13:03:34;0.80;;;0.40;;
31386;SDS011;69978;50.096;8.448;2023-06-14T13:06:00;2.10;;;0.22;;
31386;SDS011;69978;50.096;8.448;2023-06-14T13:08:26;2.30;;;0.35;;
31386;SDS011;69978;50.096;8.448;2023-06-14T13:10:52;0.85;;;0.35;;
31386;SDS011;69978;50.096;8.448;2023-06-14T13:13:18;3.22;;;0.50;;
31386;SDS011;69978;50.096;8.448;2023-06-14T13:15:44;1.67;;;0.40;;
31386;SDS011;69978;50.096;8.448;2023-06-14T13:18:11;1.33;;;0.30;;
31386;SDS011;69978;50.096;8.448;2023-06-14T13:20:38;3.17;;;0.40;;
31386;SDS011;69978;50.096;8.448;2023-06-14T13:23:04;1.38;;;0.40;;
31386;SDS011;69978;50.096;8.448;2023-06-14T13:25:32;1.27;;;0.43;;
31386;SDS011;69978;50.096;8.448;2023-06-14T13:27:58;2.97;;;0.75;;
31386;SDS011;69978;50.096;8.448;2023-06-14T13:30:24;0.85;;;0.30;;
31386;SDS011;69978;50.096;8.448;2023-06-14T13:32:50;4.20;;;0.43;;
31386;SDS011;69978;50.096;8.448;2023-06-14T13:35:17;3.45;;;0.50;;
31386;SDS011;69978;50.096;8.448;2023-06-14T13:37:43;0.73;;;0.30;;
31386;SDS011;69978;50.096;8.448;2023-06-14T13:40:11;3.30;;;0.30;;
31386;SDS011;69978;50.096;8.448;2023-06-14T13:42:37;2.53;;;0.30;;
31386;SDS011;69978;50.096;8.448;2023-06-14T13:47:55;0.55;;;0.30;;
31386;SDS011;69978;50.096;8.448;2023-06-14T13:50:41;0.45;;;0.30;;
31386;SDS011;69978;50.096;8.448;2023-06-14T13:53:11;5.70;;;0.57;;
31386;SDS011;69978;50.096;8.448;2023-06-14T13:55:37;0.50;;;0.35;;
31386;SDS011;69978;50.096;8.448;2023-06-14T13:58:02;1.88;;;0.50;;
31386;SDS011;69978;50.096;8.448;2023-06-14T14:00:33;2.10;;;0.47;;
31386;SDS011;69978;50.096;8.448;2023-06-14T14:03:07;0.75;;;0.50;;
31386;SDS011;69978;50.096;8.448;2023-06-14T14:05:33;0.55;;;0.35;;
31386;SDS011;69978;50.096;8.448;2023-06-14T14:08:10;2.70;;;0.40;;
31386;SDS011;69978;50.096;8.448;2023-06-14T14:10:39;0.63;;;0.40;;
31386;SDS011;69978;50.096;8.448;2023-06-14T14:13:31;1.40;;;0.35;;
31386;SDS011;69978;50.096;8.448;2023-06-14T14:15:56;1.88;;;0.30;;
31386;SDS011;69978;50.096;8.448;2023-06-14T14:18:22;4.95;;;0.40;;
31386;SDS011;69978;50.096;8.448;2023-06-14T14:20:50;2.72;;;0.50;;
31386;SDS011;69978;50.096;8.448;2023-06-14T14:23:16;1.50;;;0.40;;
31386;SDS011;69978;50.096;8.448;2023-06-14T14:25:44;2.10;;;0.40;;
31386;SDS011;69978;50.096;8.448;2023-06-14T14:28:19;2.08;;;0.60;;
31386;SDS011;69978;50.096;8.448;2023-06-14T14:30:51;1.10;;;0.30;;
31386;SDS011;69978;50.096;8.448;2023-06-14T14:33:24;1.90;;;0.38;;
31386;SDS011;69978;50.096;8.448;2023-06-14T14:35:53;2.05;;;0.40;;
31386;SDS011;69978;50.096;8.448;2023-06-14T14:38:18;2.60;;;0.30;;
31386;SDS011;69978;50.096;8.448;2023-06-14T14:40:44;0.73;;;0.40;;
31386;SDS011;69978;50.096;8.448;2023-06-14T14:43:19;0.28;;;0.20;;
31386;SDS011;69978;50.096;8.448;2023-06-14T14:48:12;1.20;;;0.50;;
31386;SDS011;69978;50.096;8.448;2023-06-14T14:50:38;0.60;;;0.30;;
31386;SDS011;69978;50.096;8.448;2023-06-14T14:53:04;1.40;;;0.50;;
31386;SDS011;69978;50.096;8.448;2023-06-14T14:55:30;0.75;;;0.40;;
31386;SDS011;69978;50.096;8.448;2023-06-14T14:57:57;1.15;;;0.43;;
31386;SDS011;69978;50.096;8.448;2023-06-14T15:00:22;0.70;;;0.40;;
31386;SDS011;69978;50.096;8.448;2023-06-14T15:02:48;1.65;;;0.40;;
31386;SDS011;69978;50.096;8.448;2023-06-14T15:05:14;1.50;;;0.60;;
31386;SDS011;69978;50.096;8.448;2023-06-14T15:07:39;1.90;;;0.50;;
31386;SDS011;69978;50.096;8.448;2023-06-14T15:10:06;2.65;;;0.60;;
31386;SDS011;69978;50.096;8.448;2023-06-14T15:12:32;2.08;;;0.30;;
31386;SDS011;69978;50.096;8.448;2023-06-14T15:14:57;0.43;;;0.40;;
31386;SDS011;69978;50.096;8.448;2023-06-14T15:17:23;1.83;;;0.50;;
31386;SDS011;69978;50.096;8.448;2023-06-14T15:19:49;3.08;;;0.35;;
31386;SDS011;69978;50.096;8.448;2023-06-14T15:22:15;3.95;;;0.50;;
31386;SDS011;69978;50.096;8.448;2023-06-14T15:24:41;0.95;;;0.40;;
31386;SDS011;69978;50.096;8.448;2023-06-14T15:27:13;0.75;;;0.40;;